• Join FlightAware (Why Join?)
  • Login
  • US Flag 
09:09AM EDT


 

Airport Tracker/Info


-or-


 

Live Flight TrackerFlight Track Log ✈ KEN1501 ✈ 07-Jul-2013 ✈ KBFI - KCLM

Flight Track Log - Related Links

Times and Time Zones

All times are in EDT time to prevent confusion due to time zone crossing. See the KEN1501 flight status page for this flight to view local times or setup timezone preferences in your user account.

Time Position Orientation Groundspeed Altitude Reporting Facility
EDT Latitude Longitude Course Direction KTS MPH feet Rate Location/Type
12:44PM 47.5197 -122.2933 139° Southeast 117 135 800  Level Seattle Center
12:45PM 47.4967 -122.2633 139° Southeast 129 148 1,900 1,080 Climbing Seattle Center
12:46PM 47.4611 -122.2372 154° Southeast 137 158 2,900 900 Climbing Seattle Center
12:47PM 47.4478 -122.2903 250° West 136 157 3,900 600 Climbing Seattle Center
12:48PM 47.4433 -122.3419 263° West 175 201 4,100  Climbing Seattle Center
12:49PM 47.4506 -122.4167 278° West 175 201 4,000 -60 Descending Seattle Center
12:50PM 47.4789 -122.4744 306° West 173 199 4,000  Level Seattle Center
12:51PM 47.5167 -122.5278 316° Northwest 173 199 4,100  Climbing Seattle Center
12:52PM 47.5619 -122.5481 343° North 171 197 4,000 -60 Descending Seattle Center
12:53PM 47.6072 -122.5692 343° North 170 196 4,000  Level Seattle Center
12:54PM 47.6531 -122.5908 342° North 172 198 4,000  Level Seattle Center
12:55PM 47.7022 -122.6133 343° North 172 198 4,000  Level Seattle Center
12:56PM 47.7450 -122.6328 343° North 172 198 4,100  Climbing Seattle Center
12:57PM 47.7892 -122.6542 342° North 171 197 4,000 -60 Descending Seattle Center
12:57PM 47.8228 -122.6717 341° North 172 198 4,000  Level Seattle Center
12:59PM 47.8686 -122.7019 336° Northwest 172 198 4,000  Level Seattle Center
12:59PM 47.9056 -122.7336 330° Northwest 169 194 4,000  Level Seattle Center
01:01PM 47.9653 -122.7856 330° Northwest 170 196 4,000  Level Seattle Center
01:02PM 47.9972 -122.8331 315° West 169 194 4,100  Climbing Seattle Center
01:03PM 48.0081 -122.8978 284° West 171 197 4,000 -120 Descending Seattle Center
01:03PM 48.0136 -122.9378 282° West 173 199 4,000 60 Level Seattle Center
01:04PM 48.0211 -122.9692 290° West 174 200 4,100 60 Climbing Seattle Center
01:05PM 48.0336 -123.0369 285° West 172 198 4,100 -60 Level Seattle Center
01:06PM 48.0436 -123.0903 286° West 172 198 4,000 -180 Descending Seattle Center
01:07PM 48.0550 -123.1533 285° West 170 196 3,900 -240 Descending Seattle Center
01:07PM 48.0664 -123.2167 285° West 176 203 3,600 -240 Descending Seattle Center
01:08PM 48.0742 -123.2511 289° West 174 200 3,600  Level Seattle Center